Česky Dansk Deutsch English Español Suomi Français Magyar Italiano Nederlands norsk Polski Português svenska Türkçe

 

Het Weer

EQAT ()

12:30, 6 december 2007 (GMT)

 
WE
 
Home            
Takoradi Saltpond Axim Accra Ada Akim Oda Koforidua Akuse Adiake Lome Abidjan Ho Sefwi Bekwai S. Tome Tabligbo Cotonou Kumasi Lagos / Ikeja Bohicon Principe Atakpame Sunyani Sassandra

Om een weerknop op uw website of weblog te plaatsen, copieer onderstaande code en plak die in uw pagina. In het eerste vakje staat HTML-code, in het tweede vakje UBB-code.


Add to Google

Details

Wind speed:4 bf, 11 kn, 5.7 m/s, 12.7 miles/h, 20.4 km/h
Wind direction:NW, 320° - NE, 050°
Visibility:Greater than 10000 m, 10 km, 32800 ft, 6.2 miles
Clouds:CAVOC
Temperature:3°C, 37°F
Gefühlte Temperatur:-2°C, 29°F
Dew-point:-2°C, 28°F
Atmospheric pressure:1018 hPa, 763.6 mmHg, 30.06 inHg, 1.005 atm
Relative humidity:69.6 %
METAR:EQAT 061230Z AUTO 36011KT 320V050 CAVOK 03/M02 Q1018

Snelkoppelingen

Actuele weersinformatie van de hele wereld. Voeg locaties toe met het plus (+) symbool. Deze snelkoppelingen kunnen worden toegevoegd aan Google.

Lid van de Technetium groep

website free tracking
StatCounter NetStat W3C Validator

24-06-2021 10:38:45
astro.technetium.be money.technetium.be phote.technetium.be tafeltennistafel.technetium.be www.ligfiets.net